Time;durP1;ratioP1;P1;durP2;ratioP2;P2;SDS_P1;SDS_P2;PMS_P1;PMS_P2;Temp;Humidity;BMP_temperature;BMP_pressure;BME280_temperature;BME280_humidity;BME280_pressure;Samples;Min_cycle;Max_cycle;Signal;HPM_P1;HPM_P2
2022/11/20 00:00:57;;;;;;;51.30;26.35;;;5.30;81.40;;;;;;5141429;27;20208;-70
2022/11/20 00:03:24;;;;;;;52.67;27.23;;;5.20;81.40;;;;;;5136023;27;20262;-70
2022/11/20 00:05:54;;;;;;;54.38;27.10;;;5.20;81.40;;;;;;5140538;27;20200;-71
2022/11/20 00:08:22;;;;;;;56.90;25.30;;;5.20;81.50;;;;;;5140819;27;20237;-70
2022/11/20 00:10:50;;;;;;;48.35;25.58;;;5.20;81.40;;;;;;5140247;27;20234;-70
2022/11/20 00:13:17;;;;;;;46.75;24.45;;;5.20;81.50;;;;;;5140707;27;20849;-70
2022/11/20 00:15:45;;;;;;;44.70;23.50;;;5.20;81.50;;;;;;5141755;27;20266;-70
2022/11/20 00:18:13;;;;;;;43.78;23.05;;;5.30;81.50;;;;;;5127499;27;20205;-70
2022/11/20 00:20:41;;;;;;;51.33;26.05;;;5.30;81.50;;;;;;5146050;27;20217;-70
2022/11/20 00:23:11;;;;;;;46.63;24.95;;;5.30;81.40;;;;;;5146883;27;20776;-70
2022/11/20 00:25:38;;;;;;;50.63;26.08;;;5.30;81.40;;;;;;5127941;27;20209;-70
2022/11/20 00:28:06;;;;;;;44.40;25.02;;;5.30;81.50;;;;;;5144270;27;20808;-71
2022/11/20 00:30:34;;;;;;;47.50;25.73;;;5.30;81.40;;;;;;5146773;27;20559;-71
2022/11/20 00:33:02;;;;;;;42.53;24.17;;;5.40;81.40;;;;;;5125765;27;20602;-71
2022/11/20 00:35:31;;;;;;;46.20;24.30;;;5.40;81.30;;;;;;5148190;27;20205;-71
2022/11/20 00:37:58;;;;;;;50.45;24.90;;;5.40;81.40;;;;;;5144328;27;20193;-70
2022/11/20 00:40:28;;;;;;;47.38;24.63;;;5.40;81.30;;;;;;5143687;27;20297;-70
2022/11/20 00:42:56;;;;;;;47.15;24.48;;;5.40;81.30;;;;;;5145417;27;20250;-70
2022/11/20 00:45:24;;;;;;;42.92;23.58;;;5.40;81.30;;;;;;5146357;27;20911;-70
2022/11/20 00:47:52;;;;;;;48.28;24.27;;;5.40;81.30;;;;;;5145014;27;20670;-71
2022/11/20 00:50:20;;;;;;;48.47;24.25;;;5.40;81.20;;;;;;5146709;27;20804;-70
2022/11/20 00:52:48;;;;;;;46.15;23.67;;;5.40;81.10;;;;;;5144249;27;20213;-70
2022/11/20 00:55:16;;;;;;;48.97;23.13;;;5.40;81.20;;;;;;5145290;27;20213;-70
2022/11/20 00:57:45;;;;;;;48.38;24.98;;;5.40;81.20;;;;;;5147015;27;20228;-70
2022/11/20 01:00:13;;;;;;;48.13;23.50;;;5.40;81.20;;;;;;5142956;27;20678;-70
2022/11/20 01:02:41;;;;;;;45.50;24.45;;;5.50;81.20;;;;;;5146861;27;20215;-71
2022/11/20 01:05:09;;;;;;;44.30;22.52;;;5.50;81.20;;;;;;5145144;27;20760;-70
2022/11/20 01:07:37;;;;;;;43.72;23.38;;;5.50;81.10;;;;;;5148448;27;20216;-70
2022/11/20 01:10:06;;;;;;;43.60;24.60;;;5.50;81.10;;;;;;5143947;27;21112;-70
2022/11/20 01:12:34;;;;;;;48.90;25.20;;;5.50;81.10;;;;;;5145552;27;20736;-71
2022/11/20 01:15:04;;;;;;;45.55;24.23;;;5.50;81.00;;;;;;5141685;27;20233;-70
2022/11/20 01:17:32;;;;;;;43.40;22.88;;;5.50;81.00;;;;;;5140437;27;20212;-70
2022/11/20 01:20:00;;;;;;;44.85;23.25;;;5.50;81.00;;;;;;5123775;27;20722;-70
2022/11/20 01:22:28;;;;;;;45.13;24.25;;;5.50;80.90;;;;;;5144512;27;20197;-71
2022/11/20 01:24:56;;;;;;;48.20;25.02;;;5.50;80.80;;;;;;5143485;27;20201;-70
2022/11/20 01:27:24;;;;;;;42.78;22.45;;;5.50;80.80;;;;;;5143195;27;20221;-71
2022/11/20 01:29:52;;;;;;;44.50;23.15;;;5.40;80.60;;;;;;5142596;27;20221;-70
2022/11/20 01:32:29;;;;;;;47.53;24.58;;;5.40;80.80;;;;;;5145574;27;20209;-71
2022/11/20 01:34:57;;;;;;;41.72;22.88;;;5.40;80.90;;;;;;5146174;27;20213;-69
2022/11/20 01:37:24;;;;;;;49.88;25.33;;;5.40;80.80;;;;;;5145865;27;20648;-70
2022/11/20 01:39:53;;;;;;;47.38;24.25;;;5.30;80.50;;;;;;5143676;27;20213;-70
2022/11/20 01:45:51;;;;;;;49.60;25.95;;;5.20;80.70;;;;;;5145824;27;20205;-70
2022/11/20 01:48:23;;;;;;;48.38;24.30;;;5.20;80.80;;;;;;5147270;27;20538;-70
2022/11/20 01:50:53;;;;;;;71.82;33.90;;;5.20;80.70;;;;;;5145559;27;20193;-70
2022/11/20 01:53:26;;;;;;;58.80;29.40;;;5.10;80.60;;;;;;5141575;27;20254;-70
2022/11/20 01:55:57;;;;;;;63.22;28.77;;;5.10;80.70;;;;;;5144002;27;20217;-70
2022/11/20 01:58:29;;;;;;;51.20;24.67;;;5.10;80.70;;;;;;5144299;27;20595;-70
2022/11/20 02:00:57;;;;;;;50.00;25.10;;;5.10;80.80;;;;;;5142484;27;20269;-70
2022/11/20 02:03:28;;;;;;;99.38;41.40;;;5.10;80.90;;;;;;5144422;27;20254;-72
2022/11/20 02:06:02;;;;;;;58.75;29.33;;;5.10;80.80;;;;;;5139793;27;20927;-70
2022/11/20 02:08:31;;;;;;;62.33;31.17;;;5.10;80.80;;;;;;5146849;27;20298;-70
2022/11/20 02:10:59;;;;;;;70.30;34.08;;;5.20;80.80;;;;;;5141743;27;20530;-70
2022/11/20 02:13:44;;;;;;;104.25;42.40;;;5.20;80.80;;;;;;5144905;27;20269;-70
2022/11/20 02:16:16;;;;;;;63.83;29.52;;;5.20;80.70;;;;;;5142594;27;20201;-70
2022/11/20 02:18:47;;;;;;;47.60;25.05;;;5.20;80.80;;;;;;5144262;27;20290;-71
2022/11/20 02:21:28;;;;;;;45.47;24.70;;;5.20;80.80;;;;;;5145095;27;20213;-70
2022/11/20 02:24:06;;;;;;;48.40;25.27;;;5.20;80.80;;;;;;5146679;27;20205;-70
2022/11/20 02:26:42;;;;;;;45.20;23.02;;;5.20;80.80;;;;;;5146455;27;20193;-70
2022/11/20 02:29:10;;;;;;;44.63;22.15;;;5.20;80.80;;;;;;5144627;27;20228;-70
2022/11/20 02:31:40;;;;;;;42.20;21.75;;;5.20;80.80;;;;;;5143414;27;20681;-70
2022/11/20 02:34:09;;;;;;;45.65;23.30;;;5.20;80.80;;;;;;5143461;27;20204;-70
2022/11/20 02:36:40;;;;;;;41.58;22.05;;;5.20;80.80;;;;;;5144590;27;20262;-69
2022/11/20 02:39:12;;;;;;;35.33;19.65;;;5.30;80.80;;;;;;5143215;27;20380;-70
2022/11/20 02:41:40;;;;;;;44.60;22.48;;;5.30;80.80;;;;;;5144956;27;20633;-70
2022/11/20 02:44:08;;;;;;;46.78;22.90;;;5.30;80.80;;;;;;5127318;27;21146;-70
2022/11/20 02:46:36;;;;;;;43.58;21.45;;;5.30;80.80;;;;;;5147104;27;20261;-70
2022/11/20 02:49:05;;;;;;;39.85;21.50;;;5.30;80.80;;;;;;5143986;27;20228;-71
2022/11/20 02:51:33;;;;;;;41.13;21.83;;;5.30;80.80;;;;;;5143505;27;20254;-69
2022/11/20 02:54:01;;;;;;;43.92;22.30;;;5.30;80.80;;;;;;5143286;27;20569;-70
2022/11/20 02:56:31;;;;;;;41.63;22.40;;;5.30;80.80;;;;;;5147794;27;20270;-69
2022/11/20 02:58:59;;;;;;;41.83;22.48;;;5.30;80.80;;;;;;5122770;27;20225;-70
2022/11/20 03:01:27;;;;;;;47.80;23.10;;;5.30;80.80;;;;;;5143141;27;20221;-70
2022/11/20 03:03:55;;;;;;;45.38;23.42;;;5.30;80.80;;;;;;5126121;27;20237;-70
2022/11/20 03:06:23;;;;;;;50.25;23.83;;;5.30;80.60;;;;;;5147126;27;20218;-70
2022/11/20 03:08:51;;;;;;;48.30;24.27;;;5.30;80.80;;;;;;5148030;27;20292;-69
2022/11/20 03:11:20;;;;;;;46.50;23.63;;;5.30;80.50;;;;;;5145399;27;20201;-70
2022/11/20 03:13:49;;;;;;;52.47;27.00;;;5.20;80.50;;;;;;5142662;27;20212;-70
2022/11/20 03:16:20;;;;;;;58.55;26.88;;;5.20;80.60;;;;;;5144931;27;20269;-70
2022/11/20 03:18:48;;;;;;;58.70;28.02;;;5.10;80.50;;;;;;5144289;27;20225;-70
2022/11/20 03:21:16;;;;;;;49.80;25.38;;;5.10;80.50;;;;;;5144827;27;20220;-69
2022/11/20 03:23:44;;;;;;;52.10;24.55;;;5.10;80.40;;;;;;5143350;27;20198;-70
2022/11/20 03:26:15;;;;;;;52.22;25.70;;;5.00;80.40;;;;;;5147409;27;20197;-70
2022/11/20 03:28:46;;;;;;;53.40;24.90;;;4.90;80.40;;;;;;5142320;27;20229;-70
2022/11/20 03:31:18;;;;;;;58.67;25.95;;;4.90;80.30;;;;;;5142666;27;20634;-71
2022/11/20 03:33:46;;;;;;;50.35;25.30;;;4.80;80.70;;;;;;5145251;27;20193;-70
2022/11/20 03:36:16;;;;;;;55.72;24.20;;;4.80;80.80;;;;;;5145104;27;20230;-70
2022/11/20 03:38:44;;;;;;;52.75;25.50;;;4.80;80.70;;;;;;5143669;27;20209;-70
2022/11/20 03:41:14;;;;;;;48.40;23.83;;;4.80;80.70;;;;;;5144365;27;20221;-70
2022/11/20 03:43:42;;;;;;;50.83;24.25;;;4.70;80.90;;;;;;5144924;27;20197;-70
2022/11/20 03:46:10;;;;;;;55.53;26.48;;;4.70;80.80;;;;;;5143455;27;20246;-70
2022/11/20 03:48:40;;;;;;;58.13;30.42;;;4.70;80.90;;;;;;5145225;27;21133;-70
2022/11/20 03:51:09;;;;;;;56.10;28.55;;;4.70;80.90;;;;;;5145467;27;20209;-70
2022/11/20 03:53:37;;;;;;;48.60;24.67;;;4.70;81.00;;;;;;5127214;27;20209;-70
2022/11/20 03:56:06;;;;;;;55.30;27.55;;;4.70;81.00;;;;;;5143930;27;20262;-70
2022/11/20 03:58:35;;;;;;;47.05;23.20;;;4.70;81.00;;;;;;5145325;27;20225;-70
2022/11/20 04:01:08;;;;;;;48.10;24.75;;;4.70;80.90;;;;;;5147140;27;20217;-70
2022/11/20 04:03:37;;;;;;;53.28;24.90;;;4.70;81.00;;;;;;5137995;27;20197;-70
2022/11/20 04:06:09;;;;;;;48.30;24.27;;;4.70;81.20;;;;;;5141228;27;20745;-70
2022/11/20 04:08:38;;;;;;;53.00;25.75;;;4.70;81.20;;;;;;5144524;27;20713;-70
2022/11/20 04:11:13;;;;;;;48.72;24.40;;;4.70;81.30;;;;;;5142412;27;20242;-70
2022/11/20 04:13:42;;;;;;;51.58;24.83;;;4.80;81.30;;;;;;5141935;27;20223;-71
2022/11/20 04:16:11;;;;;;;52.92;24.42;;;4.80;81.20;;;;;;5142178;27;20197;-70
2022/11/20 04:18:39;;;;;;;52.67;24.33;;;4.80;81.20;;;;;;5135968;27;20299;-70
2022/11/20 04:21:08;;;;;;;43.03;22.35;;;4.80;81.30;;;;;;5139962;27;20221;-71
2022/11/20 04:23:36;;;;;;;43.50;23.00;;;4.80;81.30;;;;;;5144166;27;20213;-71
2022/11/20 04:26:05;;;;;;;46.70;22.60;;;4.80;81.30;;;;;;5143995;27;20204;-70
2022/11/20 04:28:33;;;;;;;49.63;25.70;;;4.80;81.20;;;;;;5143334;27;20225;-70
2022/11/20 04:31:04;;;;;;;50.88;24.63;;;4.80;81.10;;;;;;5124085;27;20595;-70
2022/11/20 04:33:33;;;;;;;43.00;21.75;;;4.80;81.10;;;;;;5142709;27;20213;-70
2022/11/20 04:36:03;;;;;;;42.90;22.38;;;4.70;81.20;;;;;;5142296;27;20225;-70
2022/11/20 04:38:33;;;;;;;50.80;23.55;;;4.70;81.20;;;;;;5145047;27;20225;-70
2022/11/20 04:41:02;;;;;;;44.33;24.02;;;4.70;81.20;;;;;;5143770;27;20356;-71
2022/11/20 04:43:30;;;;;;;46.15;22.55;;;4.70;81.30;;;;;;5142134;27;20202;-70
2022/11/20 04:45:59;;;;;;;46.25;23.73;;;4.70;81.50;;;;;;5143757;27;20201;-70
2022/11/20 04:48:28;;;;;;;52.40;24.40;;;4.70;81.50;;;;;;5144412;27;20225;-70
2022/11/20 04:50:57;;;;;;;48.35;24.10;;;4.80;81.50;;;;;;5143963;27;20198;-70
2022/11/20 04:53:25;;;;;;;56.47;26.77;;;4.80;81.50;;;;;;5144831;27;20197;-72
2022/11/20 04:56:00;;;;;;;41.92;22.40;;;4.80;81.50;;;;;;5143439;27;20293;-69
2022/11/20 04:58:28;;;;;;;46.35;22.67;;;4.80;81.40;;;;;;5143337;27;20228;-69
2022/11/20 05:01:03;;;;;;;49.33;24.77;;;4.90;81.40;;;;;;5145898;27;20205;-70
2022/11/20 05:03:31;;;;;;;44.15;23.60;;;4.90;81.60;;;;;;5127631;27;20213;-70
2022/11/20 05:06:01;;;;;;;42.53;22.38;;;4.90;81.60;;;;;;5149155;27;20670;-70
2022/11/20 05:08:29;;;;;;;39.28;22.08;;;5.00;81.60;;;;;;5149299;27;20751;-70
2022/11/20 05:11:02;;;;;;;52.45;26.48;;;5.00;81.60;;;;;;5144062;27;20279;-70
2022/11/20 05:13:30;;;;;;;39.42;21.25;;;5.00;81.30;;;;;;5147500;27;20212;-70
2022/11/20 05:16:03;;;;;;;45.47;22.98;;;5.00;81.10;;;;;;5145930;27;20205;-70
2022/11/20 05:18:31;;;;;;;42.20;22.45;;;5.00;81.20;;;;;;5146756;27;20291;-70
2022/11/20 05:20:59;;;;;;;40.88;21.48;;;5.00;81.30;;;;;;5147591;27;20781;-71
2022/11/20 05:23:28;;;;;;;59.33;30.70;;;5.00;81.30;;;;;;5147487;27;20198;-70
2022/11/20 05:25:58;;;;;;;71.22;33.97;;;5.00;81.20;;;;;;5127745;27;20209;-71
2022/11/20 05:28:28;;;;;;;55.78;29.40;;;4.90;81.20;;;;;;5147440;27;20221;-70
2022/11/20 05:30:57;;;;;;;53.60;24.88;;;4.90;81.40;;;;;;5148247;27;20680;-70
2022/11/20 05:33:25;;;;;;;43.13;23.35;;;5.00;81.40;;;;;;5146658;27;20196;-70
2022/11/20 05:35:52;;;;;;;41.95;22.23;;;5.00;81.60;;;;;;5147104;27;20205;-71
2022/11/20 05:38:20;;;;;;;61.58;31.00;;;5.10;81.50;;;;;;5145738;27;20545;-71
2022/11/20 05:40:48;;;;;;;41.92;22.38;;;5.00;81.40;;;;;;5145168;27;20685;-70
2022/11/20 05:43:16;;;;;;;41.15;20.40;;;5.10;81.40;;;;;;5146937;27;20214;-70
2022/11/20 05:45:53;;;;;;;45.95;23.65;;;5.10;81.30;;;;;;5148334;27;20711;-70
2022/11/20 05:48:21;;;;;;;42.00;22.58;;;5.00;81.40;;;;;;5146402;27;20318;-71
2022/11/20 05:50:49;;;;;;;44.65;22.02;;;5.10;81.40;;;;;;5146752;27;20215;-70
2022/11/20 05:53:17;;;;;;;39.47;19.83;;;5.10;81.20;;;;;;5146079;27;20205;-71
2022/11/20 05:55:45;;;;;;;40.03;20.35;;;5.00;81.20;;;;;;5146078;27;20896;-70
2022/11/20 05:58:13;;;;;;;75.28;33.83;;;5.00;81.20;;;;;;5146560;27;20197;-70
2022/11/20 06:00:41;;;;;;;50.85;23.45;;;5.00;81.30;;;;;;5147871;27;20607;-70
2022/11/20 06:03:10;;;;;;;51.72;25.70;;;4.90;81.20;;;;;;5147669;27;20740;-70
2022/11/20 06:05:38;;;;;;;51.15;25.33;;;4.90;81.20;;;;;;5145899;27;20664;-70
2022/11/20 06:08:06;;;;;;;50.53;25.35;;;4.90;81.10;;;;;;5145518;27;20205;-70
2022/11/20 06:10:34;;;;;;;48.50;24.90;;;4.90;81.20;;;;;;5146917;27;20205;-70
2022/11/20 06:13:02;;;;;;;51.30;25.30;;;4.90;81.40;;;;;;5145697;27;20206;-70
2022/11/20 06:15:30;;;;;;;47.60;24.67;;;4.90;81.30;;;;;;5127777;27;20225;-70
2022/11/20 06:17:58;;;;;;;53.03;23.95;;;4.90;81.60;;;;;;5144654;27;20205;-70
2022/11/20 06:20:28;;;;;;;45.60;21.88;;;4.90;81.70;;;;;;5147307;27;20722;-69
2022/11/20 06:22:56;;;;;;;39.70;20.42;;;4.90;81.70;;;;;;5146028;27;20777;-72
2022/11/20 06:25:24;;;;;;;39.22;19.20;;;5.00;81.70;;;;;;5145919;27;20258;-72
2022/11/20 06:27:52;;;;;;;43.55;21.40;;;5.00;81.60;;;;;;5140723;27;20704;-72
2022/11/20 06:30:20;;;;;;;38.38;21.45;;;5.00;81.60;;;;;;5145387;27;20252;-71
2022/11/20 06:32:48;;;;;;;46.88;21.90;;;5.00;81.50;;;;;;5144056;27;20202;-71
2022/11/20 06:35:16;;;;;;;41.45;21.20;;;5.10;81.50;;;;;;5144175;27;20258;-72
2022/11/20 06:37:45;;;;;;;45.85;21.70;;;5.10;81.50;;;;;;5144392;27;20197;-72
2022/11/20 06:40:14;;;;;;;44.33;22.70;;;5.10;81.50;;;;;;5147200;27;20217;-71
2022/11/20 06:42:42;;;;;;;43.85;22.17;;;5.10;81.50;;;;;;5146008;27;20225;-70
2022/11/20 06:45:11;;;;;;;42.45;21.45;;;5.10;81.50;;;;;;5145677;27;20202;-70
2022/11/20 06:47:39;;;;;;;41.45;20.90;;;5.10;81.50;;;;;;5146642;27;20232;-71
2022/11/20 06:50:07;;;;;;;40.95;22.25;;;5.10;81.50;;;;;;5142531;27;20218;-71
2022/11/20 06:52:36;;;;;;;47.30;21.70;;;5.20;81.50;;;;;;5144095;27;20201;-70
2022/11/20 06:55:12;;;;;;;44.45;22.23;;;5.20;81.50;;;;;;5144673;27;20209;-70
2022/11/20 06:57:40;;;;;;;43.35;22.40;;;5.20;81.60;;;;;;5147533;27;20201;-71
2022/11/20 07:00:10;;;;;;;47.22;22.38;;;5.20;81.50;;;;;;5147086;27;20778;-70
2022/11/20 07:02:38;;;;;;;42.22;21.60;;;5.20;81.50;;;;;;5144762;27;20221;-69
2022/11/20 07:05:06;;;;;;;45.20;21.40;;;5.20;81.50;;;;;;5141630;27;20193;-70
2022/11/20 07:07:34;;;;;;;46.55;23.33;;;5.20;81.60;;;;;;5145370;27;20202;-71
2022/11/20 07:10:02;;;;;;;47.97;21.92;;;5.20;81.60;;;;;;5142417;27;20217;-71
2022/11/20 07:12:32;;;;;;;50.97;23.30;;;5.20;81.50;;;;;;5143938;27;20201;-71
2022/11/20 07:14:59;;;;;;;45.38;22.02;;;5.20;81.50;;;;;;5144983;27;20236;-71
2022/11/20 07:17:28;;;;;;;42.42;20.13;;;5.20;81.50;;;;;;5146072;27;20223;-71
2022/11/20 07:19:56;;;;;;;45.78;22.23;;;5.20;81.50;;;;;;5144031;27;20277;-71
2022/11/20 07:22:23;;;;;;;47.05;23.50;;;5.20;81.60;;;;;;5143836;27;20220;-70
2022/11/20 07:24:51;;;;;;;46.80;24.95;;;5.20;81.60;;;;;;5147025;27;20204;-69
2022/11/20 07:27:19;;;;;;;47.10;22.38;;;5.30;81.60;;;;;;5147730;27;20212;-70
2022/11/20 07:29:49;;;;;;;46.92;23.67;;;5.30;81.50;;;;;;5124823;27;20289;-71
2022/11/20 07:32:17;;;;;;;49.08;22.95;;;5.20;81.60;;;;;;5145256;27;20632;-72
2022/11/20 07:34:45;;;;;;;47.35;22.58;;;5.30;81.60;;;;;;5143142;27;20197;-72
2022/11/20 07:37:13;;;;;;;48.55;21.45;;;5.30;81.60;;;;;;5126888;27;20701;-71
2022/11/20 07:39:41;;;;;;;49.13;22.20;;;5.20;81.50;;;;;;5146466;27;20225;-71
2022/11/20 07:42:09;;;;;;;41.63;20.58;;;5.20;81.40;;;;;;5143400;27;20924;-71
2022/11/20 07:44:38;;;;;;;47.17;25.65;;;5.20;81.30;;;;;;5124951;27;20270;-71
2022/11/20 07:47:07;;;;;;;48.72;26.27;;;5.10;81.30;;;;;;5141123;27;20255;-69
2022/11/20 07:49:35;;;;;;;39.85;21.27;;;5.00;81.40;;;;;;5141517;27;20228;-72
2022/11/20 07:52:03;;;;;;;32.30;17.67;;;5.00;81.60;;;;;;5142309;27;20733;-69
2022/11/20 07:54:32;;;;;;;35.28;17.60;;;5.10;81.70;;;;;;5144804;27;20201;-71
2022/11/20 07:57:00;;;;;;;32.17;16.55;;;5.10;81.80;;;;;;5147243;27;20931;-71
2022/11/20 07:59:28;;;;;;;31.70;15.30;;;5.10;81.80;;;;;;5140688;27;20225;-72
2022/11/20 08:01:56;;;;;;;30.17;16.83;;;5.20;81.70;;;;;;5140008;27;20202;-71
2022/11/20 08:04:26;;;;;;;29.85;16.73;;;5.20;81.70;;;;;;5143566;27;20240;-71
2022/11/20 08:06:54;;;;;;;29.73;15.18;;;5.20;81.70;;;;;;5143486;27;20562;-70
2022/11/20 08:09:22;;;;;;;31.70;15.65;;;5.20;81.70;;;;;;5146552;27;20217;-71
2022/11/20 08:14:36;;;;;;;30.88;15.43;;;5.20;81.70;;;;;;5146299;27;20261;-71
2022/11/20 08:17:04;;;;;;;30.10;15.73;;;5.30;81.70;;;;;;5139728;27;21036;-70
2022/11/20 08:19:33;;;;;;;30.67;15.95;;;5.30;81.70;;;;;;5144761;27;20245;-71
2022/11/20 08:22:01;;;;;;;32.45;15.82;;;5.30;81.70;;;;;;5142971;27;22384;-70
2022/11/20 08:24:29;;;;;;;31.80;15.85;;;5.30;81.80;;;;;;5145580;27;20244;-69
2022/11/20 08:26:58;;;;;;;33.25;15.20;;;5.30;81.70;;;;;;5141741;27;20957;-69
2022/11/20 08:29:27;;;;;;;31.73;16.20;;;5.30;81.70;;;;;;5142408;27;20225;-69
2022/11/20 08:31:55;;;;;;;32.67;16.92;;;5.30;81.80;;;;;;5143417;27;20201;-69
2022/11/20 08:34:23;;;;;;;29.58;16.17;;;5.30;81.80;;;;;;5143394;27;20205;-69
2022/11/20 08:36:52;;;;;;;28.23;15.25;;;5.30;81.70;;;;;;5140778;27;20677;-69
2022/11/20 08:39:20;;;;;;;30.13;15.68;;;5.40;81.80;;;;;;5147170;27;20277;-69
2022/11/20 08:41:49;;;;;;;34.65;16.30;;;5.40;81.80;;;;;;5147302;27;20745;-70
2022/11/20 08:44:17;;;;;;;31.02;15.65;;;5.40;81.80;;;;;;5147779;27;20213;-70
2022/11/20 08:46:46;;;;;;;30.65;14.20;;;5.40;81.80;;;;;;5146787;27;20674;-70
2022/11/20 08:49:15;;;;;;;31.17;15.68;;;5.40;81.70;;;;;;5146475;27;20258;-70
2022/11/20 08:51:43;;;;;;;29.83;15.30;;;5.40;81.80;;;;;;5145526;27;20947;-70
2022/11/20 08:54:13;;;;;;;31.33;15.77;;;5.40;81.80;;;;;;5147448;27;20225;-70
2022/11/20 08:56:41;;;;;;;34.33;17.15;;;5.40;81.80;;;;;;5147344;27;20834;-70
2022/11/20 08:59:09;;;;;;;35.90;15.90;;;5.40;81.80;;;;;;5149134;27;20269;-70
2022/11/20 09:01:58;;;;;;;30.33;17.08;;;5.40;81.80;;;;;;5146627;27;20198;-69
2022/11/20 09:04:26;;;;;;;25.08;14.30;;;5.50;81.90;;;;;;5148139;27;20232;-70
2022/11/20 09:06:54;;;;;;;30.45;16.25;;;5.50;81.80;;;;;;5145688;27;20212;-70
2022/11/20 09:09:23;;;;;;;31.27;16.63;;;5.50;81.80;;;;;;5148840;27;20966;-70
2022/11/20 09:11:51;;;;;;;26.60;14.45;;;5.50;81.80;;;;;;5145412;27;20292;-69
2022/11/20 09:14:19;;;;;;;26.45;14.07;;;5.50;81.80;;;;;;5143184;27;20190;-70
2022/11/20 09:16:47;;;;;;;22.40;12.68;;;5.50;81.80;;;;;;5146067;27;20254;-70
2022/11/20 09:19:16;;;;;;;26.85;14.93;;;5.50;81.80;;;;;;5142414;27;20232;-70
2022/11/20 09:22:04;;;;;;;26.42;13.57;;;5.50;81.80;;;;;;5143428;27;20258;-71
2022/11/20 09:24:33;;;;;;;25.95;13.55;;;5.50;81.80;;;;;;5142993;27;21038;-68
2022/11/20 09:27:04;;;;;;;27.25;14.15;;;5.60;81.80;;;;;;5147011;27;20346;-69
2022/11/20 09:29:32;;;;;;;29.80;14.23;;;5.60;81.60;;;;;;5145561;27;20278;-69
2022/11/20 09:32:00;;;;;;;28.65;14.43;;;5.50;81.40;;;;;;5143636;27;20198;-70
2022/11/20 09:34:28;;;;;;;30.58;15.48;;;5.40;81.50;;;;;;5145293;27;20206;-68
2022/11/20 09:36:56;;;;;;;27.77;14.55;;;5.40;81.60;;;;;;5143631;27;20197;-69
2022/11/20 09:39:26;;;;;;;30.10;15.23;;;5.30;81.70;;;;;;5142600;27;21029;-70
2022/11/20 09:42:12;;;;;;;29.83;15.98;;;5.30;81.80;;;;;;5144562;27;20257;-70
2022/11/20 09:44:53;;;;;;;32.05;15.63;;;5.40;81.90;;;;;;5142645;27;20209;-70
2022/11/20 09:47:33;;;;;;;36.13;17.98;;;5.40;81.90;;;;;;5143190;27;20221;-69
2022/11/20 09:50:17;;;;;;;37.08;17.55;;;5.40;81.90;;;;;;5146590;27;20225;-70
2022/11/20 09:52:54;;;;;;;32.55;16.90;;;5.40;82.00;;;;;;5142960;27;20205;-69
2022/11/20 09:55:22;;;;;;;34.83;17.73;;;5.40;82.00;;;;;;5145125;27;20682;-69
2022/11/20 09:57:53;;;;;;;33.20;16.42;;;5.40;82.10;;;;;;5147695;27;20197;-70
2022/11/20 10:00:23;;;;;;;39.50;17.02;;;5.50;82.10;;;;;;5146855;27;20283;-70
2022/11/20 10:02:56;;;;;;;36.92;17.90;;;5.50;82.10;;;;;;5142221;27;20261;-70
2022/11/20 10:05:27;;;;;;;32.05;15.38;;;5.50;82.10;;;;;;5147706;27;20213;-71
2022/11/20 10:08:13;;;;;;;28.67;14.90;;;5.50;82.10;;;;;;5145436;27;20197;-70
2022/11/20 10:10:44;;;;;;;30.33;15.55;;;5.60;82.20;;;;;;5147170;27;20211;-70
2022/11/20 10:13:34;;;;;;;28.50;14.70;;;5.60;82.30;;;;;;5143014;27;20257;-69
2022/11/20 10:16:22;;;;;;;26.30;13.60;;;5.60;82.30;;;;;;5144819;27;20217;-69
2022/11/20 10:19:06;;;;;;;21.20;12.38;;;5.70;82.20;;;;;;5147299;27;20371;-70
2022/11/20 10:21:46;;;;;;;22.40;12.82;;;5.70;82.20;;;;;;5146186;27;20273;-69
2022/11/20 10:24:35;;;;;;;23.40;13.30;;;5.70;82.10;;;;;;5144986;27;20212;-70
2022/11/20 10:27:22;;;;;;;22.65;12.02;;;5.70;82.10;;;;;;5147173;27;20217;-70
2022/11/20 10:30:01;;;;;;;19.80;11.70;;;5.70;82.10;;;;;;5147356;27;20235;-69
2022/11/20 10:32:37;;;;;;;19.30;10.18;;;5.70;82.20;;;;;;5144733;27;20197;-69
2022/11/20 10:35:15;;;;;;;21.88;10.98;;;5.70;82.10;;;;;;5145345;27;20189;-70
2022/11/20 10:37:45;;;;;;;19.08;9.95;;;5.70;82.20;;;;;;5142117;27;20209;-70
2022/11/20 10:40:22;;;;;;;19.27;9.38;;;5.80;82.20;;;;;;5144241;27;20216;-70
2022/11/20 10:42:55;;;;;;;15.88;9.40;;;5.80;82.20;;;;;;5144966;27;20242;-70
2022/11/20 10:45:40;;;;;;;17.75;10.25;;;5.80;82.20;;;;;;5147131;27;20282;-70
2022/11/20 10:48:18;;;;;;;18.92;9.60;;;5.80;82.30;;;;;;5147738;27;20189;-69
2022/11/20 10:50:55;;;;;;;17.95;10.45;;;5.90;82.20;;;;;;5145183;27;20257;-70
2022/11/20 10:53:41;;;;;;;20.48;10.73;;;5.90;82.20;;;;;;5141559;27;20193;-70
2022/11/20 10:56:17;;;;;;;19.73;10.45;;;5.90;82.20;;;;;;5146619;27;20201;-69
2022/11/20 10:58:55;;;;;;;20.00;10.52;;;5.90;82.30;;;;;;5143838;27;20272;-70
2022/11/20 11:01:26;;;;;;;18.50;10.48;;;6.00;82.30;;;;;;5143623;27;20681;-70
2022/11/20 11:03:56;;;;;;;15.45;9.10;;;6.00;82.20;;;;;;5144777;27;20205;-70
2022/11/20 11:06:32;;;;;;;15.13;8.18;;;6.00;82.30;;;;;;5145890;27;20216;-70
2022/11/20 11:09:21;;;;;;;18.27;8.93;;;6.00;82.30;;;;;;5147761;27;20224;-68
2022/11/20 11:11:50;;;;;;;15.93;8.95;;;6.00;82.30;;;;;;5146289;27;20205;-70
2022/11/20 11:14:18;;;;;;;18.30;9.43;;;6.00;82.40;;;;;;5146504;27;20273;-71
2022/11/20 11:16:52;;;;;;;18.15;9.10;;;6.10;82.30;;;;;;5142264;27;20197;-71
2022/11/20 11:19:21;;;;;;;18.15;10.25;;;6.10;82.40;;;;;;5143990;27;20268;-70
2022/11/20 11:21:54;;;;;;;16.52;9.45;;;6.10;82.40;;;;;;5142977;27;20194;-70
2022/11/20 11:24:24;;;;;;;17.73;10.02;;;6.10;82.40;;;;;;5141227;27;20217;-69
2022/11/20 11:27:13;;;;;;;17.27;9.32;;;6.10;82.40;;;;;;5144711;27;21039;-69
2022/11/20 11:29:44;;;;;;;15.75;9.30;;;6.10;82.40;;;;;;5147043;27;20304;-70
2022/11/20 11:32:16;;;;;;;18.70;10.05;;;6.10;82.40;;;;;;5145211;27;20251;-70
2022/11/20 11:34:44;;;;;;;16.95;9.77;;;6.10;82.40;;;;;;5140342;27;20197;-71
2022/11/20 11:37:17;;;;;;;18.35;10.25;;;6.10;82.30;;;;;;5142185;27;20221;-70
2022/11/20 11:39:48;;;;;;;19.33;10.43;;;6.10;82.30;;;;;;5139061;27;20273;-69
2022/11/20 11:42:36;;;;;;;21.08;11.05;;;6.10;82.40;;;;;;5142397;27;20279;-69
2022/11/20 11:45:06;;;;;;;23.50;11.88;;;6.10;82.40;;;;;;5144347;27;20214;-69
2022/11/20 11:47:44;;;;;;;22.83;11.27;;;6.10;82.40;;;;;;5146282;27;20193;-69
2022/11/20 11:50:21;;;;;;;23.08;11.25;;;6.10;82.40;;;;;;5141973;27;20341;-69
2022/11/20 11:52:59;;;;;;;23.45;11.50;;;6.10;82.50;;;;;;5141161;27;20197;-69
2022/11/20 11:55:33;;;;;;;21.17;11.18;;;6.10;82.50;;;;;;5143575;27;20213;-69
2022/11/20 11:58:23;;;;;;;20.50;11.55;;;6.10;82.60;;;;;;5133760;27;20227;-69
2022/11/20 12:00:57;;;;;;;21.55;11.45;;;6.10;82.60;;;;;;5142511;27;20197;-69
2022/11/20 12:03:33;;;;;;;20.73;11.15;;;6.10;82.60;;;;;;5144907;27;20205;-69
2022/11/20 12:06:07;;;;;;;21.50;10.05;;;6.20;82.60;;;;;;5142220;27;20217;-69
2022/11/20 12:08:45;;;;;;;18.80;10.20;;;6.20;82.60;;;;;;5143162;27;20221;-70
2022/11/20 12:11:18;;;;;;;26.27;10.57;;;6.20;82.70;;;;;;5143043;27;20518;-71
2022/11/20 12:13:53;;;;;;;21.17;11.05;;;6.20;82.70;;;;;;5150200;27;20213;-70
2022/11/20 12:16:21;;;;;;;17.25;9.18;;;6.20;82.70;;;;;;5145884;27;20623;-69
2022/11/20 12:18:52;;;;;;;17.80;9.80;;;6.20;82.60;;;;;;5144294;27;20870;-70
2022/11/20 12:21:27;;;;;;;19.60;10.75;;;6.20;82.70;;;;;;5144752;27;20576;-69
2022/11/20 12:24:10;;;;;;;20.60;11.32;;;6.20;82.70;;;;;;5144195;27;20223;-70
2022/11/20 12:27:01;;;;;;;18.20;9.73;;;6.20;82.70;;;;;;5147472;27;20227;-68
2022/11/20 12:29:44;;;;;;;17.98;9.73;;;6.20;82.70;;;;;;5127363;27;20273;-69
2022/11/20 12:32:37;;;;;;;19.88;10.05;;;6.20;82.70;;;;;;5146536;27;20193;-69
2022/11/20 12:35:18;;;;;;;17.08;8.93;;;6.20;82.80;;;;;;5147984;27;20201;-69
2022/11/20 12:37:56;;;;;;;16.60;8.88;;;6.20;82.80;;;;;;5146884;27;20249;-68
2022/11/20 12:40:34;;;;;;;20.55;10.65;;;6.20;82.80;;;;;;5147161;27;20221;-68
2022/11/20 12:46:16;;;;;;;22.83;11.23;;;6.30;82.90;;;;;;5147607;27;20668;-68
2022/11/20 12:48:55;;;;;;;17.88;9.98;;;6.30;82.90;;;;;;5145240;27;20749;-69
2022/11/20 12:51:37;;;;;;;18.00;10.32;;;6.30;83.00;;;;;;5144434;27;20200;-69
2022/11/20 12:54:36;;;;;;;17.95;9.38;;;6.30;83.00;;;;;;5149590;27;20257;-69
2022/11/20 12:57:10;;;;;;;21.83;11.00;;;6.30;83.00;;;;;;5144025;27;20205;-69
2022/11/20 12:59:53;;;;;;;16.30;9.40;;;6.30;83.00;;;;;;5144980;27;20224;-69
2022/11/20 13:02:28;;;;;;;18.02;9.80;;;6.40;83.10;;;;;;5142681;27;20193;-69
2022/11/20 13:05:28;;;;;;;19.20;9.50;;;6.40;83.00;;;;;;5144122;27;20291;-69
2022/11/20 13:07:58;;;;;;;17.55;9.73;;;6.40;83.00;;;;;;5143679;27;20196;-70